| time (UTC) | temp F | wind direction | speed MPH | gust MPH | rain 1hr in | rain 24hr in | rain mn in | humidity % | barometer mb |
| 20260906203016 | 80 | 158 | 7.0 | 19.0 | 0.00 | 0.00 | 0.00 | 32 | 1014.5 |
| 20260906200016 | 80 | 158 | 8.0 | 18.0 | 0.00 | 0.00 | 0.00 | 33 | 1015.0 |
| 20260906193016 | 79 | 180 | 7.0 | 20.0 | 0.00 | 0.00 | 0.00 | 32 | 1015.5 |
| 20260906190056 | 81 | 180 | 8.0 | 18.0 | 0.00 | 0.00 | 0.00 | 31 | 1015.8 |
| 20260906183015 | 79 | 180 | 5.0 | 16.0 | 0.00 | 0.00 | 0.00 | 33 | 1016.2 |
| 20260906180016 | 80 | 158 | 7.0 | 18.0 | 0.00 | 0.00 | 0.00 | 30 | 1016.7 |
| 20260906173016 | 80 | 180 | 6.0 | 17.0 | 0.00 | 0.00 | 0.00 | 30 | 1016.7 |
| 20260906170017 | 79 | 180 | 5.0 | 17.0 | 0.00 | 0.00 | 0.00 | 32 | 1017.0 |
| 20260906163017 | 78 | 180 | 4.0 | 15.0 | 0.00 | 0.00 | 0.00 | 34 | 1017.3 |
| 20260906160017 | 76 | 180 | 3.0 | 14.0 | 0.00 | 0.00 | 0.00 | 34 | 1017.1 |
| 20260906153017 | 72 | 0.0 | 5.0 | 0.00 | 0.00 | 0.00 | 46 | 1016.8 | |
| 20260906150017 | 71 | 113 | 1.0 | 10.0 | 0.00 | 0.00 | 0.00 | 45 | 1016.9 |
| 20260906143017 | 67 | 113 | 1.0 | 11.0 | 0.00 | 0.00 | 0.00 | 41 | 1016.4 |
| 20260906140017 | 67 | 0.0 | 7.0 | 0.00 | 0.00 | 0.00 | 47 | 1016.6 | |
| 20260906133017 | 69 | 0.0 | 3.0 | 0.00 | 0.00 | 0.00 | 47 | 1016.5 | |
| 20260906130017 | 72 | 135 | 1.0 | 10.0 | 0.00 | 0.00 | 0.00 | 33 | 1016.7 |
| 20260906123017 | 73 | 113 | 3.0 | 10.0 | 0.00 | 0.00 | 0.00 | 32 | 1017.1 |
| 20260906120017 | 74 | 113 | 5.0 | 16.0 | 0.00 | 0.00 | 0.00 | 30 | 1017.1 |
| 20260906113017 | 74 | 113 | 4.0 | 17.0 | 0.00 | 0.00 | 0.00 | 29 | 1017.4 |
| 20260906110017 | 74 | 135 | 4.0 | 14.0 | 0.00 | 0.00 | 0.00 | 28 | 1017.6 |
| 20260906103017 | 74 | 113 | 4.0 | 13.0 | 0.00 | 0.00 | 0.00 | 27 | 1017.4 |
| 20260906100017 | 74 | 113 | 3.0 | 13.0 | 0.00 | 0.00 | 0.00 | 27 | 1016.9 |
| 20260906093017 | 73 | 113 | 2.0 | 12.0 | 0.00 | 0.00 | 0.00 | 28 | 1016.7 |
| 20260906090017 | 72 | 113 | 2.0 | 13.0 | 0.00 | 0.00 | 0.00 | 27 | 1016.4 |
| 20260906083056 | 73 | 113 | 1.0 | 10.0 | 0.00 | 0.00 | 0.00 | 34 | 1016.9 |
| 20260906080018 | 74 | 113 | 2.0 | 11.0 | 0.00 | 0.00 | 0.00 | 25 | 1016.2 |
| 20260906073016 | 76 | 135 | 3.0 | 13.0 | 0.00 | 0.00 | 0.00 | 24 | 1016.4 |
| 20260906070016 | 77 | 135 | 5.0 | 16.0 | 0.00 | 0.00 | 0.00 | 23 | 1016.6 |
| 20260906063016 | 77 | 135 | 5.0 | 15.0 | 0.00 | 0.00 | 0.00 | 24 | 1016.4 |
| 20260906060016 | 77 | 135 | 5.0 | 15.0 | 0.00 | 0.00 | 0.00 | 23 | 1015.9 |
| 20260906053017 | 77 | 113 | 4.0 | 13.0 | 0.00 | 0.00 | 0.00 | 23 | 1015.7 |
| 20260906050017 | 78 | 135 | 3.0 | 12.0 | 0.00 | 0.00 | 0.00 | 22 | 1015.7 |
| 20260906043017 | 78 | 135 | 4.0 | 18.0 | 0.00 | 0.00 | 0.00 | 21 | 1015.3 |
| 20260906040017 | 78 | 113 | 4.0 | 12.0 | 0.00 | 0.00 | 0.00 | 21 | 1015.1 |
| 20260906033017 | 78 | 113 | 2.0 | 10.0 | 0.00 | 0.00 | 0.00 | 22 | 1014.2 |
| 20260906030017 | 79 | 113 | 3.0 | 15.0 | 0.00 | 0.00 | 0.00 | 21 | 1013.4 |
| 20260906023017 | 79 | 113 | 2.0 | 10.0 | 0.00 | 0.00 | 0.00 | 23 | 1012.8 |
| 20260906020057 | 81 | 158 | 1.0 | 11.0 | 0.00 | 0.00 | 0.00 | 24 | 1013.4 |
| 20260906013017 | 83 | 180 | 3.0 | 12.0 | 0.00 | 0.00 | 0.00 | 22 | 1013.7 |
| 20260906010037 | 84 | 180 | 2.0 | 10.0 | 0.00 | 0.00 | 0.00 | 19 | 1013.8 |
| 20260906003037 | 85 | 180 | 2.0 | 9.0 | 0.00 | 0.00 | 0.00 | 17 | 1013.8 |
| 20260906000016 | 86 | 180 | 2.0 | 11.0 | 0.00 | 0.00 | 0.00 | 15 | 1014.1 |
| 20260905233016 | 85 | 180 | 1.0 | 9.0 | 0.00 | 0.00 | 0.00 | 17 | 1014.8 |
| 20260905230016 | 86 | 180 | 2.0 | 11.0 | 0.00 | 0.00 | 0.00 | 16 | 1015.0 |
| 20260905223016 | 87 | 180 | 2.0 | 14.0 | 0.00 | 0.00 | 0.00 | 17 | 1015.1 |
| 20260905220056 | 87 | 158 | 2.0 | 13.0 | 0.00 | 0.00 | 0.00 | 17 | 1015.8 |
| 20260905213016 | 85 | 180 | 3.0 | 14.0 | 0.00 | 0.00 | 0.00 | 19 | 1015.8 |
| 20260905210016 | 84 | 180 | 5.0 | 14.0 | 0.00 | 0.00 | 0.00 | 22 | 1016.1 |